createdAt,value
2023-09-21T00:02:05.863Z,22.19
2023-09-21T00:04:38.471Z,23.61
2023-09-21T00:07:11.679Z,21.54
2023-09-21T00:09:44.075Z,21.22
2023-09-21T00:12:16.399Z,21.27
2023-09-21T00:14:49.037Z,20.85
2023-09-21T00:17:24.623Z,23.13
2023-09-21T00:19:57.458Z,22.96
2023-09-21T00:22:29.914Z,21.31
2023-09-21T00:25:04.637Z,21.71
2023-09-21T00:27:37.034Z,21.56
2023-09-21T00:30:10.687Z,21.85
2023-09-21T00:32:46.426Z,23.34
2023-09-21T00:35:20.074Z,22.75
2023-09-21T00:37:52.460Z,22.67
2023-09-21T00:40:26.426Z,23.49
2023-09-21T00:42:59.122Z,22.54
2023-09-21T00:45:31.705Z,22.11
2023-09-21T00:48:10.766Z,22.70
2023-09-21T00:50:46.392Z,22.03
2023-09-21T00:53:20.626Z,21.66
2023-09-21T00:55:58.295Z,22.48
2023-09-21T00:58:32.791Z,21.55
2023-09-21T01:01:07.079Z,21.84
2023-09-21T01:03:44.828Z,21.92
2023-09-21T01:06:19.834Z,22.44
2023-09-21T01:08:52.915Z,21.71
2023-09-21T01:11:26.593Z,22.54
2023-09-21T01:13:59.095Z,21.61
2023-09-21T01:16:31.616Z,22.56
2023-09-21T01:19:06.712Z,22.51
2023-09-21T01:21:44.892Z,23.54
2023-09-21T01:24:23.909Z,23.94
2023-09-21T01:26:56.760Z,21.76
2023-09-21T01:29:31.294Z,23.90
2023-09-21T01:32:04.343Z,23.76
2023-09-21T01:34:37.045Z,21.29
2023-09-21T01:37:09.767Z,22.19
2023-09-21T01:39:45.142Z,22.22
2023-09-21T01:42:17.533Z,23.30
2023-09-21T01:44:50.170Z,21.44
2023-09-21T01:47:22.607Z,22.16
2023-09-21T01:49:55.249Z,21.18
2023-09-21T01:52:28.764Z,21.91
2023-09-21T01:55:07.809Z,22.03
2023-09-21T01:57:40.075Z,22.56
2023-09-21T02:00:22.761Z,21.96
2023-09-21T02:02:55.884Z,22.99
2023-09-21T02:05:29.242Z,21.20
2023-09-21T02:08:01.556Z,22.34
2023-09-21T02:10:36.715Z,22.86
2023-09-21T02:13:10.236Z,22.68
2023-09-21T02:15:45.182Z,21.84
2023-09-21T02:18:17.544Z,20.19
2023-09-21T02:20:52.717Z,22.86
2023-09-21T02:23:27.562Z,21.76
2023-09-21T02:26:03.275Z,20.43
2023-09-21T02:28:35.589Z,20.83
2023-09-21T02:31:08.074Z,22.68
2023-09-21T02:33:43.481Z,21.26
2023-09-21T02:36:21.705Z,22.59
2023-09-21T02:38:54.299Z,22.96
2023-09-21T02:41:29.280Z,22.26
2023-09-21T02:44:01.743Z,22.61
2023-09-21T02:46:34.121Z,22.76
2023-09-21T02:49:07.529Z,21.58
2023-09-21T02:51:40.485Z,23.03
2023-09-21T02:54:14.597Z,21.42
2023-09-21T02:56:51.414Z,23.40
2023-09-21T02:59:24.333Z,22.92
2023-09-21T03:01:57.421Z,23.27
2023-09-21T03:04:29.644Z,22.17
2023-09-21T03:07:02.051Z,23.21
2023-09-21T03:09:34.316Z,21.79
2023-09-21T03:12:09.932Z,22.17
2023-09-21T03:14:42.247Z,22.04
2023-09-21T03:17:15.953Z,22.99
2023-09-21T03:19:50.384Z,22.48
2023-09-21T03:22:23.143Z,21.49
2023-09-21T03:24:58.434Z,21.02
2023-09-21T03:27:33.278Z,22.57
2023-09-21T03:30:07.223Z,20.66
2023-09-21T03:32:40.396Z,21.70
2023-09-21T03:35:13.471Z,20.42
2023-09-21T03:37:46.854Z,21.78
2023-09-21T03:40:19.656Z,22.47
2023-09-21T03:42:56.495Z,21.48
2023-09-21T03:45:29.189Z,21.97
2023-09-21T03:48:07.014Z,20.71
2023-09-21T03:50:39.660Z,20.71
2023-09-21T03:53:12.796Z,20.85
2023-09-21T03:55:47.777Z,21.23
2023-09-21T03:58:22.803Z,21.25
2023-09-21T04:00:55.554Z,23.05
2023-09-21T04:03:28.061Z,20.90
2023-09-21T04:06:08.118Z,21.54
2023-09-21T04:08:40.585Z,21.86
2023-09-21T04:11:13.371Z,21.50
2023-09-21T04:13:48.374Z,21.05
2023-09-21T04:16:20.713Z,21.67
2023-09-21T04:18:53.017Z,20.52
2023-09-21T04:21:25.532Z,23.87
2023-09-21T04:23:57.943Z,22.42
2023-09-21T04:26:30.284Z,21.13
2023-09-21T04:29:04.872Z,21.16
2023-09-21T04:31:37.279Z,21.74
2023-09-21T04:34:09.702Z,18.91
2023-09-21T04:36:41.972Z,21.77
2023-09-21T04:39:16.580Z,22.40
2023-09-21T04:41:49.352Z,21.91
2023-09-21T04:44:24.295Z,22.59
2023-09-21T04:46:57.426Z,21.49
2023-09-21T04:49:29.717Z,23.99
2023-09-21T04:52:05.468Z,21.19
2023-09-21T04:54:37.706Z,21.69
2023-09-21T04:57:10.377Z,22.80
2023-09-21T04:59:45.297Z,22.12
2023-09-21T05:02:17.683Z,21.86
2023-09-21T05:04:52.376Z,24.59
2023-09-21T05:07:25.416Z,22.55
2023-09-21T05:09:57.886Z,22.84
2023-09-21T05:12:30.220Z,23.13
2023-09-21T05:15:08.300Z,22.03
2023-09-21T05:17:41.477Z,23.84
2023-09-21T05:20:14.485Z,22.96
2023-09-21T05:22:46.909Z,23.86
2023-09-21T05:25:19.316Z,22.69
2023-09-21T05:27:51.584Z,23.22
2023-09-21T05:30:29.936Z,24.56
2023-09-21T05:33:04.321Z,24.17
2023-09-21T05:35:36.980Z,24.23
2023-09-21T05:38:09.344Z,24.59
2023-09-21T05:40:41.841Z,23.56
2023-09-21T05:43:14.553Z,22.76
2023-09-21T05:45:49.802Z,22.26
2023-09-21T05:48:22.144Z,23.74
2023-09-21T05:50:55.409Z,22.82
2023-09-21T05:53:27.810Z,24.44
2023-09-21T05:56:00.132Z,24.04
2023-09-21T05:58:33.656Z,23.79
2023-09-21T06:01:09.388Z,23.49
2023-09-21T06:03:42.598Z,24.24
2023-09-21T06:06:16.208Z,26.18
2023-09-21T06:08:50.084Z,24.80
2023-09-21T06:11:22.369Z,25.98
2023-09-21T06:13:55.164Z,26.25
2023-09-21T06:16:30.537Z,25.50
2023-09-21T06:19:02.877Z,23.88
2023-09-21T06:21:36.970Z,22.85
2023-09-21T06:24:10.210Z,27.74
2023-09-21T06:26:43.168Z,25.58
2023-09-21T06:29:15.448Z,27.22
2023-09-21T06:32:09.388Z,24.79
2023-09-21T06:34:44.381Z,23.29
2023-09-21T06:37:19.826Z,25.60
2023-09-21T06:39:52.062Z,25.71
2023-09-21T06:42:24.551Z,24.12
2023-09-21T06:44:57.585Z,24.31
2023-09-21T06:47:32.522Z,26.70
2023-09-21T06:50:04.779Z,24.73
2023-09-21T06:52:37.323Z,25.36
2023-09-21T06:55:10.016Z,25.28
2023-09-21T06:57:42.330Z,24.04
2023-09-21T07:00:16.419Z,26.86
2023-09-21T07:02:51.474Z,25.64
2023-09-21T07:05:24.119Z,23.75
2023-09-21T07:07:56.519Z,25.86
2023-09-21T07:10:29.046Z,26.61
2023-09-21T07:13:01.376Z,23.21
2023-09-21T07:15:33.668Z,16.98
2023-09-21T07:18:10.850Z,11.09
2023-09-21T07:20:43.265Z,9.26
2023-09-21T07:23:15.549Z,9.11
2023-09-21T07:25:47.810Z,8.56
2023-09-21T07:28:20.220Z,8.09
2023-09-21T07:30:56.483Z,7.83
2023-09-21T07:33:33.656Z,7.12
2023-09-21T07:36:07.687Z,5.49
2023-09-21T07:38:40.076Z,6.10
2023-09-21T07:41:14.589Z,6.91
2023-09-21T07:43:47.006Z,7.76
2023-09-21T07:46:19.519Z,6.41
2023-09-21T07:48:54.916Z,7.07
2023-09-21T07:51:27.905Z,7.54
2023-09-21T07:54:02.022Z,7.34
2023-09-21T07:56:37.612Z,7.26
2023-09-21T07:59:11.291Z,7.13
2023-09-21T08:01:43.537Z,7.14
2023-09-21T08:04:21.754Z,6.66
2023-09-21T08:06:57.924Z,6.52
2023-09-21T08:09:37.484Z,7.04
2023-09-21T08:12:10.809Z,7.53
2023-09-21T08:14:43.109Z,7.55
2023-09-21T08:17:15.386Z,7.63
2023-09-21T08:19:50.794Z,7.98
2023-09-21T08:22:23.514Z,7.98
2023-09-21T08:24:56.904Z,7.44
2023-09-21T08:27:30.751Z,6.74
2023-09-21T08:30:05.406Z,7.21
2023-09-21T08:32:38.034Z,7.96
2023-09-21T08:35:17.659Z,8.22
2023-09-21T08:37:51.637Z,7.73
2023-09-21T08:40:27.344Z,8.01
2023-09-21T08:43:01.220Z,8.00
2023-09-21T08:45:34.654Z,7.61
2023-09-21T08:48:07.886Z,8.07
2023-09-21T08:50:45.461Z,7.27
2023-09-21T08:53:24.669Z,8.86
2023-09-21T08:56:03.693Z,8.86
2023-09-21T08:58:42.922Z,8.36
2023-09-21T09:01:17.247Z,9.29
2023-09-21T09:03:50.845Z,7.53
2023-09-21T09:06:26.112Z,9.16
2023-09-21T09:08:58.568Z,9.65
2023-09-21T09:11:46.540Z,8.69
2023-09-21T09:14:21.036Z,9.30
2023-09-21T09:16:53.451Z,9.04
2023-09-21T09:19:25.816Z,8.39
2023-09-21T09:22:01.977Z,8.48
2023-09-21T09:24:36.645Z,7.69
2023-09-21T09:27:10.117Z,9.12
2023-09-21T09:29:53.250Z,8.05
2023-09-21T09:32:30.411Z,8.02
2023-09-21T09:35:03.598Z,9.04
2023-09-21T09:37:38.915Z,10.25
2023-09-21T09:40:14.097Z,10.51
2023-09-21T09:42:47.998Z,10.51
2023-09-21T09:45:23.550Z,11.01
2023-09-21T09:47:59.217Z,10.56
2023-09-21T09:50:37.285Z,9.39
2023-09-21T09:53:15.019Z,10.13
2023-09-21T09:55:50.429Z,9.84
2023-09-21T09:58:26.395Z,9.94
2023-09-21T10:01:02.260Z,10.03
2023-09-21T10:03:36.843Z,9.89
2023-09-21T10:06:11.386Z,10.99
2023-09-21T10:08:47.977Z,11.10
2023-09-21T10:11:23.196Z,11.62
2023-09-21T10:13:57.898Z,11.29
2023-09-21T10:16:32.834Z,9.91
2023-09-21T10:19:07.596Z,9.21
2023-09-21T10:21:44.532Z,10.76
2023-09-21T10:24:27.709Z,10.09
2023-09-21T10:27:04.756Z,8.29
2023-09-21T10:29:41.087Z,9.44
2023-09-21T10:32:13.436Z,11.65
2023-09-21T10:34:50.344Z,12.14
2023-09-21T10:37:30.746Z,11.24
2023-09-21T10:40:09.585Z,12.12
2023-09-21T10:42:42.608Z,13.85
2023-09-21T10:45:15.382Z,12.76
2023-09-21T10:47:53.638Z,13.01
2023-09-21T10:50:27.986Z,12.65
2023-09-21T10:53:02.258Z,11.71
2023-09-21T10:55:37.930Z,11.06
2023-09-21T10:58:10.279Z,10.46
2023-09-21T11:00:42.775Z,9.28
2023-09-21T11:03:17.328Z,10.18
2023-09-21T11:05:50.021Z,8.65
2023-09-21T11:08:23.040Z,7.74
2023-09-21T11:10:58.028Z,7.84
2023-09-21T11:13:30.688Z,9.65
2023-09-21T11:16:03.301Z,8.43
2023-09-21T11:18:35.807Z,8.81
2023-09-21T11:21:10.263Z,8.04
2023-09-21T11:23:44.937Z,9.36
2023-09-21T11:26:20.589Z,9.65
2023-09-21T11:28:59.818Z,9.50
2023-09-21T11:31:32.678Z,9.21
2023-09-21T11:34:09.226Z,8.95
2023-09-21T11:36:41.952Z,9.54
2023-09-21T11:39:15.604Z,8.46
2023-09-21T11:41:52.626Z,8.04
2023-09-21T11:44:26.613Z,8.99
2023-09-21T11:47:03.046Z,8.58
2023-09-21T11:49:43.090Z,9.44
2023-09-21T11:52:17.728Z,9.00
2023-09-21T11:54:50.461Z,9.74
2023-09-21T11:57:25.674Z,9.19
2023-09-21T12:00:00.492Z,9.55
2023-09-21T12:02:33.057Z,10.26
2023-09-21T12:05:12.441Z,10.48
2023-09-21T12:07:45.479Z,11.50
2023-09-21T12:10:18.053Z,10.48
2023-09-21T12:12:53.549Z,11.17
2023-09-21T12:15:25.984Z,8.31
2023-09-21T12:17:58.356Z,8.58
2023-09-21T12:20:30.692Z,8.10
2023-09-21T12:23:03.666Z,7.88
2023-09-21T12:25:39.089Z,8.11
2023-09-21T12:28:13.977Z,7.86
2023-09-21T12:30:48.847Z,9.22
2023-09-21T12:33:41.180Z,9.49
2023-09-21T12:36:26.904Z,11.25
2023-09-21T12:39:10.725Z,12.33
2023-09-21T12:41:44.767Z,10.59
2023-09-21T12:44:20.332Z,11.06
2023-09-21T12:46:52.646Z,10.72
2023-09-21T12:49:25.221Z,11.74
2023-09-21T12:51:58.275Z,11.94
2023-09-21T12:54:33.635Z,11.11
2023-09-21T12:57:06.204Z,12.34
2023-09-21T12:59:41.241Z,11.28
2023-09-21T13:02:16.356Z,12.58
2023-09-21T13:04:48.999Z,12.63
2023-09-21T13:07:21.386Z,14.01
2023-09-21T13:09:53.983Z,13.24
2023-09-21T13:12:26.838Z,12.81
2023-09-21T13:15:02.411Z,14.44
2023-09-21T13:17:36.270Z,14.70
2023-09-21T13:20:10.329Z,13.71
2023-09-21T13:22:42.962Z,13.99
2023-09-21T13:25:15.566Z,12.27
2023-09-21T13:27:48.131Z,11.86
2023-09-21T13:30:23.248Z,11.54
2023-09-21T13:32:55.826Z,11.11
2023-09-21T13:35:28.133Z,13.09
2023-09-21T13:38:01.401Z,12.89
2023-09-21T13:40:33.672Z,14.85
2023-09-21T13:43:06.744Z,15.21
2023-09-21T13:45:43.239Z,14.54
2023-09-21T13:48:16.856Z,15.46
2023-09-21T13:50:51.584Z,17.85
2023-09-21T13:53:24.144Z,17.16
2023-09-21T13:55:56.460Z,18.47
2023-09-21T13:58:28.721Z,17.20
2023-09-21T14:01:04.692Z,17.49
2023-09-21T14:03:39.589Z,14.64
2023-09-21T14:06:12.262Z,12.84
2023-09-21T14:08:44.824Z,14.26
2023-09-21T14:11:18.321Z,15.14
2023-09-21T14:13:50.762Z,17.82
2023-09-21T14:16:26.044Z,21.96
2023-09-21T14:18:58.570Z,22.87
2023-09-21T14:21:32.804Z,24.66
2023-09-21T14:24:05.287Z,22.82
2023-09-21T14:26:37.661Z,22.68
2023-09-21T14:29:10.005Z,22.74
2023-09-21T14:31:45.308Z,25.45
2023-09-21T14:34:17.788Z,19.74
2023-09-21T14:36:50.341Z,20.64
2023-09-21T14:39:22.686Z,19.69
2023-09-21T14:41:55.341Z,18.63
2023-09-21T14:44:27.595Z,16.84
2023-09-21T14:47:02.537Z,16.31
2023-09-21T14:49:34.972Z,18.30
2023-09-21T14:52:07.312Z,17.00
2023-09-21T14:54:39.625Z,18.14
2023-09-21T14:57:12.133Z,16.51
2023-09-21T14:59:45.264Z,18.49
2023-09-21T15:02:20.179Z,16.83
2023-09-21T15:04:52.563Z,16.94
2023-09-21T15:07:24.918Z,17.75
2023-09-21T15:09:59.022Z,18.41
2023-09-21T15:12:31.595Z,18.32
2023-09-21T15:15:04.165Z,18.61
2023-09-21T15:17:39.625Z,18.54
2023-09-21T15:20:13.868Z,17.32
2023-09-21T15:22:46.253Z,16.24
2023-09-21T15:25:18.648Z,18.16
2023-09-21T15:27:51.051Z,16.69
2023-09-21T15:30:23.475Z,16.80
2023-09-21T15:32:58.852Z,18.76
2023-09-21T15:35:32.566Z,17.96
2023-09-21T15:38:04.866Z,18.79
2023-09-21T15:40:37.204Z,16.84
2023-09-21T15:43:09.684Z,16.58
2023-09-21T15:45:42.522Z,14.41
2023-09-21T15:48:18.120Z,14.01
2023-09-21T15:50:50.659Z,13.86
2023-09-21T15:53:23.942Z,13.49
2023-09-21T15:55:57.845Z,13.89
2023-09-21T15:58:31.478Z,13.99
2023-09-21T16:01:03.987Z,13.49
2023-09-21T16:03:39.589Z,14.36
2023-09-21T16:06:12.084Z,14.23
2023-09-21T16:08:44.881Z,17.31
2023-09-21T16:11:18.768Z,16.84
2023-09-21T16:13:51.989Z,18.74
2023-09-21T16:16:24.434Z,16.90
2023-09-21T16:18:59.331Z,14.59
2023-09-21T16:21:34.038Z,17.35
2023-09-21T16:24:06.958Z,16.51
2023-09-21T16:26:39.308Z,16.73
2023-09-21T16:29:11.894Z,17.04
2023-09-21T16:31:44.549Z,16.50
2023-09-21T16:34:20.708Z,14.53
2023-09-21T16:36:53.018Z,14.71
2023-09-21T16:39:26.043Z,16.68
2023-09-21T16:41:58.465Z,17.66
2023-09-21T16:44:31.979Z,16.35
2023-09-21T16:47:04.271Z,17.33
2023-09-21T16:49:39.216Z,20.24
2023-09-21T16:52:11.512Z,20.84
2023-09-21T16:54:44.800Z,18.98
2023-09-21T16:57:17.104Z,19.86
2023-09-21T16:59:49.382Z,19.74
2023-09-21T17:02:23.163Z,19.49
2023-09-21T17:04:58.120Z,20.39
2023-09-21T17:07:30.491Z,19.86
2023-09-21T17:10:02.900Z,33.59
2023-09-21T17:12:35.513Z,75.80
2023-09-21T17:15:08.143Z,58.10
2023-09-21T17:17:42.275Z,58.22
2023-09-21T17:20:18.629Z,43.64
2023-09-21T17:22:51.218Z,37.42
2023-09-21T17:25:24.654Z,48.71
2023-09-21T17:27:56.891Z,50.78
2023-09-21T17:30:29.939Z,44.93
2023-09-21T17:33:02.386Z,28.83
2023-09-21T17:35:37.609Z,24.48
2023-09-21T17:38:12.066Z,24.76
2023-09-21T17:40:44.469Z,25.61
2023-09-21T17:43:16.961Z,23.34
2023-09-21T17:45:49.344Z,26.00
2023-09-21T17:48:29.507Z,25.10
2023-09-21T17:51:07.332Z,25.00
2023-09-21T17:53:40.253Z,28.58
2023-09-21T17:56:12.637Z,28.83
2023-09-21T17:58:45.221Z,29.09
2023-09-21T18:01:18.003Z,26.82
2023-09-21T18:03:51.379Z,39.52
2023-09-21T18:06:26.624Z,44.11
2023-09-21T18:08:59.049Z,36.81
2023-09-21T18:11:31.421Z,37.28
2023-09-21T18:14:03.720Z,36.51
2023-09-21T18:16:36.329Z,38.39
2023-09-21T18:19:08.930Z,37.57
2023-09-21T18:21:45.390Z,39.54
2023-09-21T18:24:18.100Z,40.27
2023-09-21T18:26:50.374Z,52.44
2023-09-21T18:29:22.981Z,63.11
2023-09-21T18:31:58.745Z,58.88
2023-09-21T18:34:31.159Z,54.11
2023-09-21T18:37:06.375Z,50.54
2023-09-21T18:39:38.683Z,48.55
2023-09-21T18:42:11.149Z,48.99
2023-09-21T18:44:43.451Z,47.15
2023-09-21T18:47:15.745Z,48.28
2023-09-21T18:49:48.767Z,50.33
2023-09-21T18:52:23.695Z,48.52
2023-09-21T18:54:55.976Z,54.45
2023-09-21T18:57:28.662Z,67.28
2023-09-21T19:00:00.950Z,67.61
2023-09-21T19:02:34.336Z,66.64
2023-09-21T19:05:06.919Z,73.75
2023-09-21T19:07:41.878Z,66.50
2023-09-21T19:10:15.192Z,70.55
2023-09-21T19:12:47.869Z,73.25
2023-09-21T19:15:21.235Z,81.25
2023-09-21T19:17:53.620Z,82.74
2023-09-21T19:20:25.928Z,79.64
2023-09-21T19:23:03.036Z,80.24
2023-09-21T19:25:38.141Z,78.84
2023-09-21T19:28:10.692Z,80.01
2023-09-21T19:30:45.249Z,82.26
2023-09-21T19:33:17.937Z,82.59
2023-09-21T19:35:51.054Z,88.04
2023-09-21T19:38:26.155Z,86.99
2023-09-21T19:40:58.540Z,95.36
2023-09-21T19:43:31.726Z,97.94
2023-09-21T19:46:07.025Z,87.06
2023-09-21T19:48:39.974Z,85.64
2023-09-21T19:51:12.590Z,81.10
2023-09-21T19:53:48.470Z,90.99
2023-09-21T19:56:20.939Z,84.64
2023-09-21T19:58:53.260Z,90.59
2023-09-21T20:01:28.504Z,89.44
2023-09-21T20:04:01.081Z,90.43
2023-09-21T20:06:33.542Z,91.46
2023-09-21T20:09:09.075Z,92.39
2023-09-21T20:11:41.760Z,98.98
2023-09-21T20:14:14.204Z,95.46
2023-09-21T20:16:46.751Z,97.73
2023-09-21T20:19:19.056Z,101.54
2023-09-21T20:21:51.809Z,96.19
2023-09-21T20:24:26.737Z,93.92
2023-09-21T20:26:59.343Z,100.61
2023-09-21T20:29:32.763Z,97.49
2023-09-21T20:32:09.370Z,94.91
2023-09-21T20:34:41.840Z,101.94
2023-09-21T20:37:15.969Z,101.48
2023-09-21T20:39:51.478Z,94.38
2023-09-21T20:42:24.003Z,92.57
2023-09-21T20:44:56.391Z,98.94
2023-09-21T20:47:29.165Z,94.68
2023-09-21T20:50:01.489Z,89.49
2023-09-21T20:52:34.549Z,93.64
2023-09-21T20:55:10.384Z,89.96
2023-09-21T20:57:42.688Z,88.42
2023-09-21T21:00:16.435Z,89.34
2023-09-21T21:02:52.400Z,84.91
2023-09-21T21:05:24.970Z,84.89
2023-09-21T21:07:57.283Z,87.15
2023-09-21T21:10:33.007Z,79.38
2023-09-21T21:13:05.486Z,83.72
2023-09-21T21:15:37.875Z,79.27
2023-09-21T21:18:10.800Z,75.71
2023-09-21T21:20:45.723Z,73.79
2023-09-21T21:23:18.282Z,72.14
2023-09-21T21:25:53.199Z,67.86
2023-09-21T21:28:25.504Z,62.77
2023-09-21T21:30:57.815Z,68.34
2023-09-21T21:33:30.435Z,62.90
2023-09-21T21:36:02.782Z,65.11
2023-09-21T21:38:35.063Z,61.64
2023-09-21T21:41:10.909Z,53.46
2023-09-21T21:43:43.606Z,54.49
2023-09-21T21:46:16.165Z,53.91
2023-09-21T21:48:48.559Z,52.92
2023-09-21T21:51:20.886Z,53.03
2023-09-21T21:53:53.260Z,54.94
2023-09-21T21:56:28.115Z,52.00
2023-09-21T21:59:01.584Z,52.43
2023-09-21T22:01:34.042Z,52.86
2023-09-21T22:04:06.546Z,55.05
2023-09-21T22:06:38.983Z,58.67
2023-09-21T22:09:11.842Z,57.41
2023-09-21T22:11:49.056Z,59.29
2023-09-21T22:14:21.567Z,61.45
2023-09-21T22:16:54.026Z,67.94
2023-09-21T22:19:26.435Z,68.14
2023-09-21T22:21:58.825Z,76.89
2023-09-21T22:24:31.817Z,80.64
2023-09-21T22:27:08.730Z,85.39
2023-09-21T22:29:38.458Z,85.37
2023-09-21T22:32:12.157Z,88.81
2023-09-21T22:34:44.527Z,93.99
2023-09-21T22:37:16.820Z,99.69
2023-09-21T22:39:49.126Z,98.23
2023-09-21T22:42:26.645Z,99.15
2023-09-21T22:45:05.351Z,103.58
2023-09-21T22:47:37.754Z,103.29
2023-09-21T22:50:15.325Z,100.56
2023-09-21T22:52:49.527Z,104.49
2023-09-21T22:55:22.663Z,106.13
2023-09-21T22:57:57.934Z,106.71
2023-09-21T23:00:30.731Z,109.72
2023-09-21T23:03:04.640Z,107.24
2023-09-21T23:05:37.154Z,109.34
2023-09-21T23:08:10.372Z,112.59
2023-09-21T23:10:42.823Z,115.34
2023-09-21T23:13:18.370Z,113.76
2023-09-21T23:15:51.099Z,119.39
2023-09-21T23:18:24.398Z,118.68
2023-09-21T23:20:56.704Z,112.14
2023-09-21T23:23:29.226Z,113.14
2023-09-21T23:26:04.733Z,109.53
2023-09-21T23:28:40.050Z,83.94
2023-09-21T23:31:12.734Z,75.39
2023-09-21T23:33:47.200Z,61.91
2023-09-21T23:36:19.802Z,62.39
2023-09-21T23:38:52.174Z,59.04
2023-09-21T23:41:27.538Z,50.79
2023-09-21T23:44:02.571Z,49.74
2023-09-21T23:46:38.849Z,50.41
2023-09-21T23:49:11.919Z,44.08
2023-09-21T23:51:44.245Z,38.47
2023-09-21T23:54:17.199Z,34.68
2023-09-21T23:56:49.453Z,30.85
2023-09-21T23:59:24.373Z,31.13
